sensor_id;sensor_type;location;lat;lon;timestamp;P1;durP1;ratioP1;P2;durP2;ratioP2
43182;SDS011;28802;38.578;-0.066;2022-11-21T00:00:34;3.33;;;0.87;;
43182;SDS011;28802;38.578;-0.066;2022-11-21T00:03:00;2.40;;;0.80;;
43182;SDS011;28802;38.578;-0.066;2022-11-21T00:05:27;3.00;;;1.00;;
43182;SDS011;28802;38.578;-0.066;2022-11-21T00:07:54;3.60;;;0.80;;
43182;SDS011;28802;38.578;-0.066;2022-11-21T00:10:21;5.77;;;0.87;;
43182;SDS011;28802;38.578;-0.066;2022-11-21T00:12:51;3.90;;;0.97;;
43182;SDS011;28802;38.578;-0.066;2022-11-21T00:15:21;12.53;;;0.63;;
43182;SDS011;28802;38.578;-0.066;2022-11-21T00:17:49;1.93;;;0.60;;
43182;SDS011;28802;38.578;-0.066;2022-11-21T00:20:16;2.10;;;0.90;;
43182;SDS011;28802;38.578;-0.066;2022-11-21T00:22:43;1.93;;;0.63;;
43182;SDS011;28802;38.578;-0.066;2022-11-21T00:25:09;1.60;;;0.50;;
43182;SDS011;28802;38.578;-0.066;2022-11-21T00:27:36;5.20;;;0.60;;
43182;SDS011;28802;38.578;-0.066;2022-11-21T00:30:03;2.70;;;0.87;;
43182;SDS011;28802;38.578;-0.066;2022-11-21T00:32:32;2.30;;;0.67;;
43182;SDS011;28802;38.578;-0.066;2022-11-21T00:34:58;3.20;;;0.70;;
43182;SDS011;28802;38.578;-0.066;2022-11-21T00:37:24;1.60;;;0.80;;
43182;SDS011;28802;38.578;-0.066;2022-11-21T00:39:50;2.10;;;0.80;;
43182;SDS011;28802;38.578;-0.066;2022-11-21T00:42:16;2.23;;;0.60;;
43182;SDS011;28802;38.578;-0.066;2022-11-21T00:44:42;4.90;;;1.00;;
43182;SDS011;28802;38.578;-0.066;2022-11-21T00:47:08;2.70;;;0.70;;
43182;SDS011;28802;38.578;-0.066;2022-11-21T00:49:34;4.60;;;0.80;;
43182;SDS011;28802;38.578;-0.066;2022-11-21T00:51:59;2.03;;;0.90;;
43182;SDS011;28802;38.578;-0.066;2022-11-21T00:54:26;3.63;;;0.63;;
43182;SDS011;28802;38.578;-0.066;2022-11-21T00:56:51;5.27;;;0.63;;
43182;SDS011;28802;38.578;-0.066;2022-11-21T00:59:18;1.70;;;0.50;;
43182;SDS011;28802;38.578;-0.066;2022-11-21T01:01:44;2.37;;;0.60;;
43182;SDS011;28802;38.578;-0.066;2022-11-21T01:04:10;1.77;;;0.60;;
43182;SDS011;28802;38.578;-0.066;2022-11-21T01:06:36;7.40;;;0.83;;
43182;SDS011;28802;38.578;-0.066;2022-11-21T01:09:02;1.13;;;0.60;;
43182;SDS011;28802;38.578;-0.066;2022-11-21T01:11:29;3.07;;;0.77;;
43182;SDS011;28802;38.578;-0.066;2022-11-21T01:13:54;1.63;;;0.77;;
43182;SDS011;28802;38.578;-0.066;2022-11-21T01:16:22;1.40;;;0.50;;
43182;SDS011;28802;38.578;-0.066;2022-11-21T01:18:50;2.10;;;0.93;;
43182;SDS011;28802;38.578;-0.066;2022-11-21T01:21:17;2.47;;;0.87;;
43182;SDS011;28802;38.578;-0.066;2022-11-21T01:23:50;2.60;;;0.60;;
43182;SDS011;28802;38.578;-0.066;2022-11-21T01:26:17;1.47;;;0.47;;
43182;SDS011;28802;38.578;-0.066;2022-11-21T01:28:47;1.47;;;0.50;;
43182;SDS011;28802;38.578;-0.066;2022-11-21T01:31:21;1.20;;;0.40;;
43182;SDS011;28802;38.578;-0.066;2022-11-21T01:33:48;1.93;;;0.50;;
43182;SDS011;28802;38.578;-0.066;2022-11-21T01:36:15;1.93;;;0.67;;
43182;SDS011;28802;38.578;-0.066;2022-11-21T01:38:44;2.03;;;0.60;;
43182;SDS011;28802;38.578;-0.066;2022-11-21T01:41:12;3.20;;;0.40;;
43182;SDS011;28802;38.578;-0.066;2022-11-21T01:43:40;1.00;;;0.30;;
43182;SDS011;28802;38.578;-0.066;2022-11-21T01:49:06;1.27;;;0.40;;
43182;SDS011;28802;38.578;-0.066;2022-11-21T01:54:17;3.13;;;0.60;;
43182;SDS011;28802;38.578;-0.066;2022-11-21T01:59:25;1.93;;;0.50;;
43182;SDS011;28802;38.578;-0.066;2022-11-21T02:01:54;1.97;;;0.67;;
43182;SDS011;28802;38.578;-0.066;2022-11-21T02:04:23;1.90;;;0.53;;
43182;SDS011;28802;38.578;-0.066;2022-11-21T02:06:52;3.00;;;0.40;;
43182;SDS011;28802;38.578;-0.066;2022-11-21T02:09:18;2.47;;;0.50;;
43182;SDS011;28802;38.578;-0.066;2022-11-21T02:11:48;3.50;;;0.47;;
43182;SDS011;28802;38.578;-0.066;2022-11-21T02:14:16;1.30;;;0.50;;
43182;SDS011;28802;38.578;-0.066;2022-11-21T02:16:43;3.77;;;0.33;;
43182;SDS011;28802;38.578;-0.066;2022-11-21T02:19:09;6.00;;;0.57;;
43182;SDS011;28802;38.578;-0.066;2022-11-21T02:24:24;1.20;;;0.40;;
43182;SDS011;28802;38.578;-0.066;2022-11-21T02:26:54;2.77;;;0.50;;
43182;SDS011;28802;38.578;-0.066;2022-11-21T02:29:20;6.20;;;0.93;;
43182;SDS011;28802;38.578;-0.066;2022-11-21T02:31:46;4.53;;;0.60;;
43182;SDS011;28802;38.578;-0.066;2022-11-21T02:34:12;1.83;;;0.50;;
43182;SDS011;28802;38.578;-0.066;2022-11-21T02:36:39;3.20;;;0.80;;
43182;SDS011;28802;38.578;-0.066;2022-11-21T02:39:09;2.10;;;0.83;;
43182;SDS011;28802;38.578;-0.066;2022-11-21T02:41:43;2.90;;;0.80;;
43182;SDS011;28802;38.578;-0.066;2022-11-21T02:44:18;1.10;;;0.53;;
43182;SDS011;28802;38.578;-0.066;2022-11-21T02:46:53;4.03;;;0.50;;
43182;SDS011;28802;38.578;-0.066;2022-11-21T02:50:06;1.40;;;0.50;;
43182;SDS011;28802;38.578;-0.066;2022-11-21T02:52:13;1.60;;;0.50;;
43182;SDS011;28802;38.578;-0.066;2022-11-21T02:54:39;3.33;;;0.40;;
43182;SDS011;28802;38.578;-0.066;2022-11-21T02:57:05;1.70;;;0.40;;
43182;SDS011;28802;38.578;-0.066;2022-11-21T02:59:31;1.20;;;0.40;;
43182;SDS011;28802;38.578;-0.066;2022-11-21T03:01:56;1.00;;;0.40;;
43182;SDS011;28802;38.578;-0.066;2022-11-21T03:04:24;2.40;;;0.47;;
43182;SDS011;28802;38.578;-0.066;2022-11-21T03:06:50;2.10;;;0.40;;
43182;SDS011;28802;38.578;-0.066;2022-11-21T03:09:16;1.97;;;0.60;;
43182;SDS011;28802;38.578;-0.066;2022-11-21T03:11:45;1.73;;;0.50;;
43182;SDS011;28802;38.578;-0.066;2022-11-21T03:14:11;2.90;;;0.50;;
43182;SDS011;28802;38.578;-0.066;2022-11-21T03:16:37;1.63;;;0.53;;
43182;SDS011;28802;38.578;-0.066;2022-11-21T03:19:03;9.97;;;0.70;;
43182;SDS011;28802;38.578;-0.066;2022-11-21T03:21:28;1.53;;;0.50;;
43182;SDS011;28802;38.578;-0.066;2022-11-21T03:23:54;1.47;;;0.60;;
43182;SDS011;28802;38.578;-0.066;2022-11-21T03:26:20;3.47;;;0.87;;
43182;SDS011;28802;38.578;-0.066;2022-11-21T03:28:46;1.70;;;0.53;;
43182;SDS011;28802;38.578;-0.066;2022-11-21T03:31:12;3.53;;;0.60;;
43182;SDS011;28802;38.578;-0.066;2022-11-21T03:33:38;2.10;;;0.60;;
43182;SDS011;28802;38.578;-0.066;2022-11-21T03:36:04;4.40;;;0.60;;
43182;SDS011;28802;38.578;-0.066;2022-11-21T03:38:30;1.70;;;0.50;;
43182;SDS011;28802;38.578;-0.066;2022-11-21T03:40:56;2.50;;;0.87;;
43182;SDS011;28802;38.578;-0.066;2022-11-21T03:43:21;1.87;;;0.40;;
43182;SDS011;28802;38.578;-0.066;2022-11-21T03:45:47;1.33;;;0.33;;
43182;SDS011;28802;38.578;-0.066;2022-11-21T03:48:14;1.90;;;0.40;;
43182;SDS011;28802;38.578;-0.066;2022-11-21T03:50:43;5.33;;;0.60;;
43182;SDS011;28802;38.578;-0.066;2022-11-21T03:53:09;2.10;;;0.77;;
43182;SDS011;28802;38.578;-0.066;2022-11-21T03:55:35;4.60;;;1.07;;
43182;SDS011;28802;38.578;-0.066;2022-11-21T03:58:01;2.27;;;0.53;;
43182;SDS011;28802;38.578;-0.066;2022-11-21T04:00:27;3.27;;;0.73;;
43182;SDS011;28802;38.578;-0.066;2022-11-21T04:02:53;3.83;;;0.77;;
43182;SDS011;28802;38.578;-0.066;2022-11-21T04:05:19;2.60;;;0.40;;
43182;SDS011;28802;38.578;-0.066;2022-11-21T04:07:45;3.97;;;0.90;;
43182;SDS011;28802;38.578;-0.066;2022-11-21T04:10:10;2.03;;;0.80;;
43182;SDS011;28802;38.578;-0.066;2022-11-21T04:12:36;2.47;;;0.50;;
43182;SDS011;28802;38.578;-0.066;2022-11-21T04:15:02;1.53;;;0.60;;
43182;SDS011;28802;38.578;-0.066;2022-11-21T04:17:28;2.57;;;0.53;;
43182;SDS011;28802;38.578;-0.066;2022-11-21T04:19:56;9.50;;;0.80;;
43182;SDS011;28802;38.578;-0.066;2022-11-21T04:22:21;2.97;;;0.50;;
43182;SDS011;28802;38.578;-0.066;2022-11-21T04:24:47;1.87;;;0.50;;
43182;SDS011;28802;38.578;-0.066;2022-11-21T04:27:13;1.90;;;0.50;;
43182;SDS011;28802;38.578;-0.066;2022-11-21T04:29:39;1.67;;;0.40;;
43182;SDS011;28802;38.578;-0.066;2022-11-21T04:32:05;1.40;;;0.40;;
43182;SDS011;28802;38.578;-0.066;2022-11-21T04:34:31;1.00;;;0.30;;
43182;SDS011;28802;38.578;-0.066;2022-11-21T04:36:57;1.40;;;0.50;;
43182;SDS011;28802;38.578;-0.066;2022-11-21T04:39:23;1.13;;;0.43;;
43182;SDS011;28802;38.578;-0.066;2022-11-21T04:41:49;1.50;;;0.50;;
43182;SDS011;28802;38.578;-0.066;2022-11-21T04:44:14;1.10;;;0.50;;
43182;SDS011;28802;38.578;-0.066;2022-11-21T04:46:40;1.20;;;0.40;;
43182;SDS011;28802;38.578;-0.066;2022-11-21T04:49:06;1.40;;;0.43;;
43182;SDS011;28802;38.578;-0.066;2022-11-21T04:51:32;2.47;;;0.73;;
43182;SDS011;28802;38.578;-0.066;2022-11-21T04:53:58;1.67;;;0.40;;
43182;SDS011;28802;38.578;-0.066;2022-11-21T04:56:24;6.93;;;0.70;;
43182;SDS011;28802;38.578;-0.066;2022-11-21T04:58:50;1.23;;;0.30;;
43182;SDS011;28802;38.578;-0.066;2022-11-21T05:01:17;3.20;;;0.60;;
43182;SDS011;28802;38.578;-0.066;2022-11-21T05:03:43;4.30;;;0.60;;
43182;SDS011;28802;38.578;-0.066;2022-11-21T05:06:09;1.60;;;0.77;;
43182;SDS011;28802;38.578;-0.066;2022-11-21T05:08:35;2.07;;;0.90;;
43182;SDS011;28802;38.578;-0.066;2022-11-21T05:11:00;1.63;;;0.50;;
43182;SDS011;28802;38.578;-0.066;2022-11-21T05:13:45;1.33;;;0.50;;
43182;SDS011;28802;38.578;-0.066;2022-11-21T05:16:11;3.23;;;1.17;;
43182;SDS011;28802;38.578;-0.066;2022-11-21T05:18:37;1.10;;;0.60;;
43182;SDS011;28802;38.578;-0.066;2022-11-21T05:21:02;1.20;;;0.43;;
43182;SDS011;28802;38.578;-0.066;2022-11-21T05:23:28;2.17;;;0.70;;
43182;SDS011;28802;38.578;-0.066;2022-11-21T05:25:54;3.03;;;0.70;;
43182;SDS011;28802;38.578;-0.066;2022-11-21T05:28:20;4.30;;;0.90;;
43182;SDS011;28802;38.578;-0.066;2022-11-21T05:30:46;2.30;;;0.63;;
43182;SDS011;28802;38.578;-0.066;2022-11-21T05:33:12;3.83;;;0.50;;
43182;SDS011;28802;38.578;-0.066;2022-11-21T05:35:38;13.53;;;6.20;;
43182;SDS011;28802;38.578;-0.066;2022-11-21T05:38:04;3.53;;;1.40;;
43182;SDS011;28802;38.578;-0.066;2022-11-21T05:40:29;1.60;;;0.60;;
43182;SDS011;28802;38.578;-0.066;2022-11-21T05:42:56;1.30;;;0.50;;
43182;SDS011;28802;38.578;-0.066;2022-11-21T05:45:40;2.13;;;0.63;;
43182;SDS011;28802;38.578;-0.066;2022-11-21T05:48:06;2.07;;;0.60;;
43182;SDS011;28802;38.578;-0.066;2022-11-21T05:50:33;1.20;;;0.40;;
43182;SDS011;28802;38.578;-0.066;2022-11-21T05:53:00;2.20;;;0.50;;
43182;SDS011;28802;38.578;-0.066;2022-11-21T05:55:28;1.77;;;0.50;;
43182;SDS011;28802;38.578;-0.066;2022-11-21T05:57:56;1.30;;;0.40;;
43182;SDS011;28802;38.578;-0.066;2022-11-21T06:00:23;1.20;;;0.30;;
43182;SDS011;28802;38.578;-0.066;2022-11-21T06:02:49;1.30;;;0.50;;
43182;SDS011;28802;38.578;-0.066;2022-11-21T06:05:34;1.40;;;0.50;;
43182;SDS011;28802;38.578;-0.066;2022-11-21T06:08:00;2.00;;;0.40;;
43182;SDS011;28802;38.578;-0.066;2022-11-21T06:10:25;1.30;;;0.50;;
43182;SDS011;28802;38.578;-0.066;2022-11-21T06:12:51;3.50;;;0.60;;
43182;SDS011;28802;38.578;-0.066;2022-11-21T06:15:17;1.60;;;0.50;;
43182;SDS011;28802;38.578;-0.066;2022-11-21T06:17:43;1.00;;;0.40;;
43182;SDS011;28802;38.578;-0.066;2022-11-21T06:20:09;1.63;;;0.50;;
43182;SDS011;28802;38.578;-0.066;2022-11-21T06:22:35;4.43;;;0.47;;
43182;SDS011;28802;38.578;-0.066;2022-11-21T06:25:01;1.30;;;0.40;;
43182;SDS011;28802;38.578;-0.066;2022-11-21T06:27:27;2.23;;;0.50;;
43182;SDS011;28802;38.578;-0.066;2022-11-21T06:29:54;2.50;;;0.60;;
43182;SDS011;28802;38.578;-0.066;2022-11-21T06:32:20;1.53;;;0.30;;
43182;SDS011;28802;38.578;-0.066;2022-11-21T06:34:46;2.93;;;0.20;;
43182;SDS011;28802;38.578;-0.066;2022-11-21T06:37:11;1.30;;;0.30;;
43182;SDS011;28802;38.578;-0.066;2022-11-21T06:39:37;1.30;;;0.40;;
43182;SDS011;28802;38.578;-0.066;2022-11-21T06:42:03;1.20;;;0.40;;
43182;SDS011;28802;38.578;-0.066;2022-11-21T06:44:29;1.40;;;0.40;;
43182;SDS011;28802;38.578;-0.066;2022-11-21T06:46:55;2.03;;;0.70;;
43182;SDS011;28802;38.578;-0.066;2022-11-21T06:49:21;1.87;;;0.40;;
43182;SDS011;28802;38.578;-0.066;2022-11-21T06:51:47;3.93;;;0.77;;
43182;SDS011;28802;38.578;-0.066;2022-11-21T06:54:15;1.30;;;0.30;;
43182;SDS011;28802;38.578;-0.066;2022-11-21T06:56:41;1.00;;;0.30;;
43182;SDS011;28802;38.578;-0.066;2022-11-21T06:59:07;1.93;;;0.30;;
43182;SDS011;28802;38.578;-0.066;2022-11-21T07:01:33;1.00;;;0.20;;
43182;SDS011;28802;38.578;-0.066;2022-11-21T07:03:59;1.47;;;0.30;;
43182;SDS011;28802;38.578;-0.066;2022-11-21T07:06:24;0.90;;;0.30;;
43182;SDS011;28802;38.578;-0.066;2022-11-21T07:08:51;2.60;;;0.30;;
43182;SDS011;28802;38.578;-0.066;2022-11-21T07:11:21;1.10;;;0.30;;
43182;SDS011;28802;38.578;-0.066;2022-11-21T07:13:46;2.63;;;0.37;;
43182;SDS011;28802;38.578;-0.066;2022-11-21T07:16:13;1.40;;;0.40;;
43182;SDS011;28802;38.578;-0.066;2022-11-21T07:18:39;5.63;;;0.40;;
43182;SDS011;28802;38.578;-0.066;2022-11-21T07:21:06;4.17;;;0.60;;
43182;SDS011;28802;38.578;-0.066;2022-11-21T07:23:33;1.83;;;0.50;;
43182;SDS011;28802;38.578;-0.066;2022-11-21T07:25:59;3.80;;;0.30;;
43182;SDS011;28802;38.578;-0.066;2022-11-21T07:28:29;1.90;;;0.40;;
43182;SDS011;28802;38.578;-0.066;2022-11-21T07:30:56;4.00;;;0.70;;
43182;SDS011;28802;38.578;-0.066;2022-11-21T07:33:23;2.70;;;0.47;;
43182;SDS011;28802;38.578;-0.066;2022-11-21T07:35:50;5.53;;;1.30;;
43182;SDS011;28802;38.578;-0.066;2022-11-21T07:38:15;3.73;;;1.00;;
43182;SDS011;28802;38.578;-0.066;2022-11-21T07:40:41;12.73;;;2.97;;
43182;SDS011;28802;38.578;-0.066;2022-11-21T07:43:08;10.90;;;2.47;;
43182;SDS011;28802;38.578;-0.066;2022-11-21T07:45:35;5.63;;;1.40;;
43182;SDS011;28802;38.578;-0.066;2022-11-21T07:48:02;3.77;;;0.70;;
43182;SDS011;28802;38.578;-0.066;2022-11-21T07:50:29;3.90;;;0.83;;
43182;SDS011;28802;38.578;-0.066;2022-11-21T07:55:28;2.40;;;0.30;;
43182;SDS011;28802;38.578;-0.066;2022-11-21T08:00:52;1.90;;;0.40;;
43182;SDS011;28802;38.578;-0.066;2022-11-21T08:03:18;2.30;;;0.40;;
43182;SDS011;28802;38.578;-0.066;2022-11-21T08:05:44;2.80;;;0.30;;
43182;SDS011;28802;38.578;-0.066;2022-11-21T08:08:10;1.20;;;0.20;;
43182;SDS011;28802;38.578;-0.066;2022-11-21T08:10:38;3.53;;;0.30;;
43182;SDS011;28802;38.578;-0.066;2022-11-21T08:13:06;5.37;;;0.50;;
43182;SDS011;28802;38.578;-0.066;2022-11-21T08:15:32;3.37;;;0.67;;
43182;SDS011;28802;38.578;-0.066;2022-11-21T08:17:58;5.03;;;1.13;;
43182;SDS011;28802;38.578;-0.066;2022-11-21T08:20:37;9.63;;;1.00;;
43182;SDS011;28802;38.578;-0.066;2022-11-21T08:23:03;6.53;;;1.37;;
43182;SDS011;28802;38.578;-0.066;2022-11-21T08:25:30;5.57;;;1.63;;
43182;SDS011;28802;38.578;-0.066;2022-11-21T08:27:57;5.07;;;1.70;;
43182;SDS011;28802;38.578;-0.066;2022-11-21T08:30:23;6.93;;;1.70;;
43182;SDS011;28802;38.578;-0.066;2022-11-21T08:32:50;5.53;;;1.20;;
43182;SDS011;28802;38.578;-0.066;2022-11-21T08:35:16;3.27;;;1.07;;
43182;SDS011;28802;38.578;-0.066;2022-11-21T08:37:42;3.67;;;1.37;;
43182;SDS011;28802;38.578;-0.066;2022-11-21T08:40:08;3.17;;;0.90;;
43182;SDS011;28802;38.578;-0.066;2022-11-21T08:42:34;2.93;;;0.83;;
43182;SDS011;28802;38.578;-0.066;2022-11-21T08:45:03;4.60;;;0.83;;
43182;SDS011;28802;38.578;-0.066;2022-11-21T08:47:31;5.30;;;1.43;;
43182;SDS011;28802;38.578;-0.066;2022-11-21T08:49:58;3.13;;;0.70;;
43182;SDS011;28802;38.578;-0.066;2022-11-21T08:52:23;4.40;;;0.90;;
43182;SDS011;28802;38.578;-0.066;2022-11-21T08:54:49;5.83;;;1.20;;
43182;SDS011;28802;38.578;-0.066;2022-11-21T08:57:15;8.10;;;1.00;;
43182;SDS011;28802;38.578;-0.066;2022-11-21T08:59:41;4.47;;;0.90;;
43182;SDS011;28802;38.578;-0.066;2022-11-21T09:02:10;3.10;;;0.80;;
43182;SDS011;28802;38.578;-0.066;2022-11-21T09:04:36;5.40;;;1.43;;
43182;SDS011;28802;38.578;-0.066;2022-11-21T09:07:03;5.10;;;1.00;;
43182;SDS011;28802;38.578;-0.066;2022-11-21T09:09:29;4.73;;;1.10;;
43182;SDS011;28802;38.578;-0.066;2022-11-21T09:11:55;2.70;;;1.10;;
43182;SDS011;28802;38.578;-0.066;2022-11-21T09:14:21;3.83;;;1.13;;
43182;SDS011;28802;38.578;-0.066;2022-11-21T09:17:05;7.10;;;1.63;;
43182;SDS011;28802;38.578;-0.066;2022-11-21T09:19:49;8.20;;;2.00;;
43182;SDS011;28802;38.578;-0.066;2022-11-21T09:22:16;7.57;;;1.80;;
43182;SDS011;28802;38.578;-0.066;2022-11-21T09:24:41;9.60;;;1.30;;
43182;SDS011;28802;38.578;-0.066;2022-11-21T09:27:07;5.57;;;1.50;;
43182;SDS011;28802;38.578;-0.066;2022-11-21T09:29:33;4.83;;;1.60;;
43182;SDS011;28802;38.578;-0.066;2022-11-21T09:31:59;7.40;;;2.17;;
43182;SDS011;28802;38.578;-0.066;2022-11-21T09:34:25;9.13;;;1.57;;
43182;SDS011;28802;38.578;-0.066;2022-11-21T09:36:51;6.87;;;1.73;;
43182;SDS011;28802;38.578;-0.066;2022-11-21T09:39:17;3.40;;;1.33;;
43182;SDS011;28802;38.578;-0.066;2022-11-21T09:46:59;5.17;;;0.93;;
43182;SDS011;28802;38.578;-0.066;2022-11-21T09:49:39;4.30;;;0.97;;
43182;SDS011;28802;38.578;-0.066;2022-11-21T09:52:08;6.13;;;1.00;;
43182;SDS011;28802;38.578;-0.066;2022-11-21T09:54:38;5.20;;;1.10;;
43182;SDS011;28802;38.578;-0.066;2022-11-21T09:57:18;8.67;;;1.40;;
43182;SDS011;28802;38.578;-0.066;2022-11-21T09:59:48;5.73;;;1.00;;
43182;SDS011;28802;38.578;-0.066;2022-11-21T10:02:16;2.27;;;1.00;;
43182;SDS011;28802;38.578;-0.066;2022-11-21T10:04:45;6.43;;;1.50;;
43182;SDS011;28802;38.578;-0.066;2022-11-21T10:07:15;5.93;;;1.40;;
43182;SDS011;28802;38.578;-0.066;2022-11-21T10:21:40;3.27;;;1.33;;
43182;SDS011;28802;38.578;-0.066;2022-11-21T10:27:20;5.47;;;2.17;;
43182;SDS011;28802;38.578;-0.066;2022-11-21T10:30:04;16.03;;;2.73;;
43182;SDS011;28802;38.578;-0.066;2022-11-21T10:32:38;11.03;;;1.93;;
43182;SDS011;28802;38.578;-0.066;2022-11-21T10:35:12;7.57;;;1.90;;
43182;SDS011;28802;38.578;-0.066;2022-11-21T10:37:39;6.80;;;1.30;;
43182;SDS011;28802;38.578;-0.066;2022-11-21T10:43:13;3.80;;;1.33;;
43182;SDS011;28802;38.578;-0.066;2022-11-21T10:46:09;8.90;;;1.83;;
43182;SDS011;28802;38.578;-0.066;2022-11-21T10:48:34;6.43;;;2.20;;
43182;SDS011;28802;38.578;-0.066;2022-11-21T10:51:13;5.27;;;1.80;;
43182;SDS011;28802;38.578;-0.066;2022-11-21T10:53:42;4.87;;;1.67;;
43182;SDS011;28802;38.578;-0.066;2022-11-21T10:56:27;7.77;;;1.70;;
43182;SDS011;28802;38.578;-0.066;2022-11-21T10:58:55;5.93;;;1.50;;
43182;SDS011;28802;38.578;-0.066;2022-11-21T11:01:27;6.53;;;1.57;;
43182;SDS011;28802;38.578;-0.066;2022-11-21T11:04:27;10.33;;;2.23;;
43182;SDS011;28802;38.578;-0.066;2022-11-21T11:06:46;6.43;;;2.53;;
43182;SDS011;28802;38.578;-0.066;2022-11-21T11:11:48;11.07;;;2.63;;
43182;SDS011;28802;38.578;-0.066;2022-11-21T11:14:14;12.53;;;2.47;;
43182;SDS011;28802;38.578;-0.066;2022-11-21T11:16:55;7.90;;;1.97;;
43182;SDS011;28802;38.578;-0.066;2022-11-21T11:19:23;24.43;;;4.00;;
43182;SDS011;28802;38.578;-0.066;2022-11-21T11:21:53;12.37;;;3.40;;
43182;SDS011;28802;38.578;-0.066;2022-11-21T11:24:21;7.13;;;1.80;;
43182;SDS011;28802;38.578;-0.066;2022-11-21T11:26:58;8.60;;;2.20;;
43182;SDS011;28802;38.578;-0.066;2022-11-21T11:31:55;22.37;;;3.23;;
43182;SDS011;28802;38.578;-0.066;2022-11-21T11:37:57;6.73;;;2.30;;
43182;SDS011;28802;38.578;-0.066;2022-11-21T11:40:34;6.87;;;2.20;;
43182;SDS011;28802;38.578;-0.066;2022-11-21T11:48:57;10.40;;;1.90;;
43182;SDS011;28802;38.578;-0.066;2022-11-21T11:51:37;6.83;;;1.83;;
43182;SDS011;28802;38.578;-0.066;2022-11-21T11:54:12;19.97;;;2.97;;
43182;SDS011;28802;38.578;-0.066;2022-11-21T11:56:39;4.90;;;1.43;;
43182;SDS011;28802;38.578;-0.066;2022-11-21T11:59:25;5.20;;;1.50;;
43182;SDS011;28802;38.578;-0.066;2022-11-21T12:01:58;9.70;;;1.37;;
43182;SDS011;28802;38.578;-0.066;2022-11-21T12:04:33;4.20;;;1.20;;
43182;SDS011;28802;38.578;-0.066;2022-11-21T12:07:15;14.23;;;2.10;;
43182;SDS011;28802;38.578;-0.066;2022-11-21T12:09:58;6.60;;;1.87;;
43182;SDS011;28802;38.578;-0.066;2022-11-21T12:12:39;16.13;;;1.80;;
43182;SDS011;28802;38.578;-0.066;2022-11-21T12:15:11;15.10;;;1.90;;
43182;SDS011;28802;38.578;-0.066;2022-11-21T12:20:47;7.67;;;1.23;;
43182;SDS011;28802;38.578;-0.066;2022-11-21T12:23:21;3.90;;;1.10;;
43182;SDS011;28802;38.578;-0.066;2022-11-21T12:51:26;7.57;;;1.47;;
43182;SDS011;28802;38.578;-0.066;2022-11-21T12:54:43;5.60;;;1.00;;
43182;SDS011;28802;38.578;-0.066;2022-11-21T12:57:49;4.70;;;1.30;;
43182;SDS011;28802;38.578;-0.066;2022-11-21T13:06:42;6.67;;;1.10;;
43182;SDS011;28802;38.578;-0.066;2022-11-21T13:09:12;5.90;;;1.90;;
43182;SDS011;28802;38.578;-0.066;2022-11-21T13:19:36;8.27;;;1.70;;
43182;SDS011;28802;38.578;-0.066;2022-11-21T13:25:01;9.17;;;1.10;;
43182;SDS011;28802;38.578;-0.066;2022-11-21T13:27:37;6.23;;;1.00;;
43182;SDS011;28802;38.578;-0.066;2022-11-21T13:45:43;7.47;;;1.20;;
43182;SDS011;28802;38.578;-0.066;2022-11-21T14:07:39;2.90;;;1.10;;
43182;SDS011;28802;38.578;-0.066;2022-11-21T14:10:29;4.80;;;0.70;;
43182;SDS011;28802;38.578;-0.066;2022-11-21T14:12:57;6.53;;;1.20;;
43182;SDS011;28802;38.578;-0.066;2022-11-21T14:18:20;4.63;;;0.83;;
43182;SDS011;28802;38.578;-0.066;2022-11-21T14:20:56;5.10;;;1.20;;
43182;SDS011;28802;38.578;-0.066;2022-11-21T14:23:33;4.17;;;1.20;;
43182;SDS011;28802;38.578;-0.066;2022-11-21T14:26:15;5.87;;;1.50;;
43182;SDS011;28802;38.578;-0.066;2022-11-21T14:28:44;9.40;;;1.00;;
43182;SDS011;28802;38.578;-0.066;2022-11-21T14:31:10;3.70;;;1.53;;
43182;SDS011;28802;38.578;-0.066;2022-11-21T14:33:37;5.67;;;1.00;;
43182;SDS011;28802;38.578;-0.066;2022-11-21T14:36:21;6.37;;;1.63;;
43182;SDS011;28802;38.578;-0.066;2022-11-21T14:38:50;9.27;;;1.40;;
43182;SDS011;28802;38.578;-0.066;2022-11-21T14:41:25;5.70;;;1.07;;
43182;SDS011;28802;38.578;-0.066;2022-11-21T14:46:23;5.67;;;1.07;;
43182;SDS011;28802;38.578;-0.066;2022-11-21T14:48:50;4.70;;;0.93;;
43182;SDS011;28802;38.578;-0.066;2022-11-21T14:51:20;5.43;;;0.90;;
43182;SDS011;28802;38.578;-0.066;2022-11-21T14:53:49;6.33;;;2.77;;
43182;SDS011;28802;38.578;-0.066;2022-11-21T14:56:23;7.23;;;1.27;;
43182;SDS011;28802;38.578;-0.066;2022-11-21T14:58:52;5.10;;;1.03;;
43182;SDS011;28802;38.578;-0.066;2022-11-21T15:01:22;5.93;;;1.40;;
43182;SDS011;28802;38.578;-0.066;2022-11-21T15:03:59;3.97;;;1.00;;
43182;SDS011;28802;38.578;-0.066;2022-11-21T15:06:27;7.23;;;1.37;;
43182;SDS011;28802;38.578;-0.066;2022-11-21T15:08:58;6.07;;;1.30;;
43182;SDS011;28802;38.578;-0.066;2022-11-21T15:14:20;4.47;;;1.17;;
43182;SDS011;28802;38.578;-0.066;2022-11-21T15:17:02;10.10;;;4.63;;
43182;SDS011;28802;38.578;-0.066;2022-11-21T15:19:33;6.10;;;1.30;;
43182;SDS011;28802;38.578;-0.066;2022-11-21T15:22:00;13.13;;;2.20;;
43182;SDS011;28802;38.578;-0.066;2022-11-21T15:24:29;6.93;;;1.57;;
43182;SDS011;28802;38.578;-0.066;2022-11-21T15:30:04;7.43;;;1.00;;
43182;SDS011;28802;38.578;-0.066;2022-11-21T15:33:19;7.37;;;2.07;;
43182;SDS011;28802;38.578;-0.066;2022-11-21T15:37:53;6.87;;;1.80;;
43182;SDS011;28802;38.578;-0.066;2022-11-21T15:40:19;9.47;;;1.57;;
43182;SDS011;28802;38.578;-0.066;2022-11-21T15:42:45;5.97;;;1.40;;
43182;SDS011;28802;38.578;-0.066;2022-11-21T15:47:41;8.90;;;1.90;;
43182;SDS011;28802;38.578;-0.066;2022-11-21T15:50:07;11.63;;;1.80;;
43182;SDS011;28802;38.578;-0.066;2022-11-21T15:52:45;8.87;;;1.87;;
43182;SDS011;28802;38.578;-0.066;2022-11-21T15:55:17;12.63;;;1.50;;
43182;SDS011;28802;38.578;-0.066;2022-11-21T15:57:45;9.93;;;2.43;;
43182;SDS011;28802;38.578;-0.066;2022-11-21T16:00:11;12.47;;;1.80;;
43182;SDS011;28802;38.578;-0.066;2022-11-21T16:02:38;6.10;;;1.13;;
43182;SDS011;28802;38.578;-0.066;2022-11-21T16:05:04;5.00;;;1.50;;
43182;SDS011;28802;38.578;-0.066;2022-11-21T16:07:30;9.30;;;2.00;;
43182;SDS011;28802;38.578;-0.066;2022-11-21T16:09:56;6.93;;;1.30;;
43182;SDS011;28802;38.578;-0.066;2022-11-21T16:12:22;4.20;;;1.00;;
43182;SDS011;28802;38.578;-0.066;2022-11-21T16:14:48;11.70;;;2.03;;
43182;SDS011;28802;38.578;-0.066;2022-11-21T16:17:14;6.20;;;1.23;;
43182;SDS011;28802;38.578;-0.066;2022-11-21T16:19:40;6.90;;;1.33;;
43182;SDS011;28802;38.578;-0.066;2022-11-21T16:22:06;11.63;;;2.30;;
43182;SDS011;28802;38.578;-0.066;2022-11-21T16:24:32;7.17;;;1.90;;
43182;SDS011;28802;38.578;-0.066;2022-11-21T16:26:58;8.63;;;1.73;;
43182;SDS011;28802;38.578;-0.066;2022-11-21T16:29:26;11.83;;;2.67;;
43182;SDS011;28802;38.578;-0.066;2022-11-21T16:31:52;9.87;;;2.57;;
43182;SDS011;28802;38.578;-0.066;2022-11-21T16:34:20;11.87;;;2.13;;
43182;SDS011;28802;38.578;-0.066;2022-11-21T16:36:46;7.70;;;1.90;;
43182;SDS011;28802;38.578;-0.066;2022-11-21T16:39:12;8.77;;;1.77;;
43182;SDS011;28802;38.578;-0.066;2022-11-21T16:41:38;6.57;;;1.60;;
43182;SDS011;28802;38.578;-0.066;2022-11-21T16:44:09;5.67;;;1.60;;
43182;SDS011;28802;38.578;-0.066;2022-11-21T16:46:44;18.37;;;3.13;;
43182;SDS011;28802;38.578;-0.066;2022-11-21T16:49:12;4.30;;;1.73;;
43182;SDS011;28802;38.578;-0.066;2022-11-21T16:51:38;5.43;;;1.40;;
43182;SDS011;28802;38.578;-0.066;2022-11-21T16:54:04;7.70;;;1.97;;
43182;SDS011;28802;38.578;-0.066;2022-11-21T16:56:29;3.70;;;1.27;;
43182;SDS011;28802;38.578;-0.066;2022-11-21T16:58:56;10.10;;;1.67;;
43182;SDS011;28802;38.578;-0.066;2022-11-21T17:01:22;7.93;;;1.37;;
43182;SDS011;28802;38.578;-0.066;2022-11-21T17:03:50;8.53;;;1.90;;
43182;SDS011;28802;38.578;-0.066;2022-11-21T17:06:17;10.87;;;2.10;;
43182;SDS011;28802;38.578;-0.066;2022-11-21T17:08:45;10.10;;;2.20;;
43182;SDS011;28802;38.578;-0.066;2022-11-21T17:11:21;10.70;;;1.80;;
43182;SDS011;28802;38.578;-0.066;2022-11-21T17:13:53;16.13;;;2.87;;